sensor_id;sensor_type;location;lat;lon;timestamp;pressure;altitude;pressure_sealevel;temperature;humidity
19843;BME280;10082;51.038;6.992;2023-04-27T00:00:15;112171.53;;;-144.33;90.86
19843;BME280;10082;51.038;6.992;2023-04-27T00:02:49;112171.53;;;-144.33;91.98
19843;BME280;10082;51.038;6.992;2023-04-27T00:05:16;112171.53;;;-144.33;93.17
19843;BME280;10082;51.038;6.992;2023-04-27T00:07:44;112171.53;;;-144.33;94.50
19843;BME280;10082;51.038;6.992;2023-04-27T00:10:13;112171.53;;;-144.33;96.35
19843;BME280;10082;51.038;6.992;2023-04-27T00:12:40;112171.53;;;-144.33;97.19
19843;BME280;10082;51.038;6.992;2023-04-27T00:15:08;112171.53;;;-144.33;99.15
19843;BME280;10082;51.038;6.992;2023-04-27T00:17:36;112171.53;;;-144.33;100.00
19843;BME280;10082;51.038;6.992;2023-04-27T00:20:03;112171.53;;;-144.33;100.00
19843;BME280;10082;51.038;6.992;2023-04-27T00:22:33;112171.53;;;-144.33;100.00
19843;BME280;10082;51.038;6.992;2023-04-27T00:25:00;112171.53;;;-144.33;100.00
19843;BME280;10082;51.038;6.992;2023-04-27T00:27:29;112171.53;;;-144.33;100.00
19843;BME280;10082;51.038;6.992;2023-04-27T00:29:56;112171.53;;;-144.33;100.00
19843;BME280;10082;51.038;6.992;2023-04-27T00:32:25;112171.53;;;-144.33;100.00
19843;BME280;10082;51.038;6.992;2023-04-27T00:34:52;112171.53;;;-144.33;100.00
19843;BME280;10082;51.038;6.992;2023-04-27T00:37:19;112171.53;;;-144.33;100.00
19843;BME280;10082;51.038;6.992;2023-04-27T00:39:46;112171.53;;;-144.33;100.00
19843;BME280;10082;51.038;6.992;2023-04-27T00:42:13;112171.53;;;-144.33;100.00
19843;BME280;10082;51.038;6.992;2023-04-27T00:44:45;112171.53;;;-144.33;100.00
19843;BME280;10082;51.038;6.992;2023-04-27T00:47:12;112171.53;;;-144.33;100.00
19843;BME280;10082;51.038;6.992;2023-04-27T00:49:39;112171.53;;;-144.33;100.00
19843;BME280;10082;51.038;6.992;2023-04-27T00:52:06;112171.53;;;-144.33;100.00
19843;BME280;10082;51.038;6.992;2023-04-27T00:54:35;112171.53;;;-144.33;100.00
19843;BME280;10082;51.038;6.992;2023-04-27T00:57:02;112171.53;;;-144.33;100.00
19843;BME280;10082;51.038;6.992;2023-04-27T00:59:30;112171.53;;;-144.33;100.00
19843;BME280;10082;51.038;6.992;2023-04-27T01:01:58;112171.53;;;-144.33;100.00
19843;BME280;10082;51.038;6.992;2023-04-27T01:04:26;112171.53;;;-144.33;100.00
19843;BME280;10082;51.038;6.992;2023-04-27T01:06:54;112171.53;;;-144.33;100.00
19843;BME280;10082;51.038;6.992;2023-04-27T01:09:21;112171.53;;;-144.33;100.00
19843;BME280;10082;51.038;6.992;2023-04-27T01:11:49;112171.53;;;-144.33;100.00
19843;BME280;10082;51.038;6.992;2023-04-27T01:14:16;112171.53;;;-144.33;100.00
19843;BME280;10082;51.038;6.992;2023-04-27T01:16:43;112171.53;;;-144.33;100.00
19843;BME280;10082;51.038;6.992;2023-04-27T01:19:13;112171.53;;;-144.33;100.00
19843;BME280;10082;51.038;6.992;2023-04-27T01:21:40;112171.53;;;-144.33;100.00
19843;BME280;10082;51.038;6.992;2023-04-27T01:24:09;112171.53;;;-144.33;100.00
19843;BME280;10082;51.038;6.992;2023-04-27T01:26:36;112171.53;;;-144.33;100.00
19843;BME280;10082;51.038;6.992;2023-04-27T01:29:03;112171.53;;;-144.33;100.00
19843;BME280;10082;51.038;6.992;2023-04-27T01:31:31;112171.53;;;-144.33;100.00
19843;BME280;10082;51.038;6.992;2023-04-27T01:33:58;112171.53;;;-144.33;100.00
19843;BME280;10082;51.038;6.992;2023-04-27T01:36:25;112171.53;;;-144.33;100.00
19843;BME280;10082;51.038;6.992;2023-04-27T01:38:54;112171.53;;;-144.33;100.00
19843;BME280;10082;51.038;6.992;2023-04-27T01:41:23;112171.53;;;-144.33;100.00
19843;BME280;10082;51.038;6.992;2023-04-27T01:43:50;112171.53;;;-144.33;100.00
19843;BME280;10082;51.038;6.992;2023-04-27T01:46:17;112171.53;;;-144.33;100.00
19843;BME280;10082;51.038;6.992;2023-04-27T01:48:51;112171.53;;;-144.33;100.00
19843;BME280;10082;51.038;6.992;2023-04-27T01:51:18;112171.53;;;-144.33;100.00
19843;BME280;10082;51.038;6.992;2023-04-27T01:53:45;112171.53;;;-144.33;100.00
19843;BME280;10082;51.038;6.992;2023-04-27T01:56:15;112171.53;;;-144.33;100.00
19843;BME280;10082;51.038;6.992;2023-04-27T01:58:44;112171.53;;;-144.33;100.00
19843;BME280;10082;51.038;6.992;2023-04-27T02:01:12;112171.53;;;-144.33;100.00
19843;BME280;10082;51.038;6.992;2023-04-27T02:03:39;112171.53;;;-144.33;100.00
19843;BME280;10082;51.038;6.992;2023-04-27T02:06:06;112171.53;;;-144.33;100.00
19843;BME280;10082;51.038;6.992;2023-04-27T02:08:33;112171.53;;;-144.33;100.00
19843;BME280;10082;51.038;6.992;2023-04-27T02:11:01;112171.53;;;-144.33;100.00
19843;BME280;10082;51.038;6.992;2023-04-27T02:13:27;112171.53;;;-144.33;100.00
19843;BME280;10082;51.038;6.992;2023-04-27T02:15:56;112171.53;;;-144.33;100.00
19843;BME280;10082;51.038;6.992;2023-04-27T02:18:26;112171.53;;;-144.33;100.00
19843;BME280;10082;51.038;6.992;2023-04-27T02:20:53;112171.53;;;-144.33;100.00
19843;BME280;10082;51.038;6.992;2023-04-27T02:23:20;112171.53;;;-144.33;100.00
19843;BME280;10082;51.038;6.992;2023-04-27T02:25:47;111807.22;;;-144.33;100.00
19843;BME280;10082;51.038;6.992;2023-04-27T02:28:15;109621.88;;;-144.33;100.00
19843;BME280;10082;51.038;6.992;2023-04-27T02:30:42;108141.53;;;-144.33;100.00
19843;BME280;10082;51.038;6.992;2023-04-27T02:33:13;109030.47;;;-144.33;100.00
19843;BME280;10082;51.038;6.992;2023-04-27T02:35:40;110243.56;;;-144.33;100.00
19843;BME280;10082;51.038;6.992;2023-04-27T02:38:08;110746.59;;;-144.33;100.00
19843;BME280;10082;51.038;6.992;2023-04-27T02:40:36;111877.66;;;-144.33;100.00
19843;BME280;10082;51.038;6.992;2023-04-27T02:43:05;112171.53;;;-144.33;100.00
19843;BME280;10082;51.038;6.992;2023-04-27T02:45:35;112171.53;;;-144.33;100.00
19843;BME280;10082;51.038;6.992;2023-04-27T02:48:04;112171.53;;;-144.33;100.00
19843;BME280;10082;51.038;6.992;2023-04-27T02:50:39;112171.53;;;-144.33;100.00
19843;BME280;10082;51.038;6.992;2023-04-27T02:53:06;112171.53;;;-144.33;100.00
19843;BME280;10082;51.038;6.992;2023-04-27T02:55:34;112171.53;;;-144.33;100.00
19843;BME280;10082;51.038;6.992;2023-04-27T02:58:01;112171.53;;;-144.33;100.00
19843;BME280;10082;51.038;6.992;2023-04-27T03:00:29;112171.53;;;-144.33;100.00
19843;BME280;10082;51.038;6.992;2023-04-27T03:02:56;112171.53;;;-144.33;100.00
19843;BME280;10082;51.038;6.992;2023-04-27T03:05:24;112171.53;;;-144.33;100.00
19843;BME280;10082;51.038;6.992;2023-04-27T03:07:54;112171.53;;;-144.33;100.00
19843;BME280;10082;51.038;6.992;2023-04-27T03:10:21;112171.53;;;-144.33;100.00
19843;BME280;10082;51.038;6.992;2023-04-27T03:12:48;112171.53;;;-144.33;100.00
19843;BME280;10082;51.038;6.992;2023-04-27T03:15:15;112171.53;;;-144.33;100.00
19843;BME280;10082;51.038;6.992;2023-04-27T03:17:43;112171.53;;;-144.33;100.00
19843;BME280;10082;51.038;6.992;2023-04-27T03:20:12;112171.53;;;-144.33;100.00
19843;BME280;10082;51.038;6.992;2023-04-27T03:22:39;112171.53;;;-144.33;100.00
19843;BME280;10082;51.038;6.992;2023-04-27T03:25:07;112171.53;;;-144.33;100.00
19843;BME280;10082;51.038;6.992;2023-04-27T03:27:37;112171.53;;;-144.33;100.00
19843;BME280;10082;51.038;6.992;2023-04-27T03:30:05;112171.53;;;-144.33;100.00
19843;BME280;10082;51.038;6.992;2023-04-27T03:32:32;112171.53;;;-144.33;100.00
19843;BME280;10082;51.038;6.992;2023-04-27T03:35:00;112171.53;;;-144.33;100.00
19843;BME280;10082;51.038;6.992;2023-04-27T03:37:28;112171.53;;;-144.33;100.00
19843;BME280;10082;51.038;6.992;2023-04-27T03:39:55;112171.53;;;-144.33;100.00
19843;BME280;10082;51.038;6.992;2023-04-27T03:42:24;112171.53;;;-144.33;100.00
19843;BME280;10082;51.038;6.992;2023-04-27T03:44:52;112171.53;;;-144.33;100.00
19843;BME280;10082;51.038;6.992;2023-04-27T03:47:19;112171.53;;;-144.33;100.00
19843;BME280;10082;51.038;6.992;2023-04-27T03:49:46;112171.53;;;-144.33;100.00
19843;BME280;10082;51.038;6.992;2023-04-27T03:52:14;112171.53;;;-144.33;100.00
19843;BME280;10082;51.038;6.992;2023-04-27T03:54:42;112171.53;;;-144.33;100.00
19843;BME280;10082;51.038;6.992;2023-04-27T03:57:10;112171.53;;;-144.33;100.00
19843;BME280;10082;51.038;6.992;2023-04-27T03:59:39;112171.53;;;-144.33;100.00
19843;BME280;10082;51.038;6.992;2023-04-27T04:02:06;112171.53;;;-144.33;100.00
19843;BME280;10082;51.038;6.992;2023-04-27T04:04:35;112171.53;;;-144.33;100.00
19843;BME280;10082;51.038;6.992;2023-04-27T04:07:02;112171.53;;;-144.33;100.00
19843;BME280;10082;51.038;6.992;2023-04-27T04:09:29;112171.53;;;-144.33;100.00
19843;BME280;10082;51.038;6.992;2023-04-27T04:11:56;112171.53;;;-144.33;100.00
19843;BME280;10082;51.038;6.992;2023-04-27T04:14:23;112171.53;;;-144.33;100.00
19843;BME280;10082;51.038;6.992;2023-04-27T04:16:52;112171.53;;;-144.33;100.00
19843;BME280;10082;51.038;6.992;2023-04-27T04:19:20;112171.53;;;-144.33;100.00
19843;BME280;10082;51.038;6.992;2023-04-27T04:21:47;112171.53;;;-144.33;100.00
19843;BME280;10082;51.038;6.992;2023-04-27T04:24:13;112171.53;;;-144.33;100.00
19843;BME280;10082;51.038;6.992;2023-04-27T04:26:41;112171.53;;;-144.33;100.00
19843;BME280;10082;51.038;6.992;2023-04-27T04:29:09;112171.53;;;-144.33;100.00
19843;BME280;10082;51.038;6.992;2023-04-27T04:31:36;112171.53;;;-144.33;100.00
19843;BME280;10082;51.038;6.992;2023-04-27T04:34:04;112171.53;;;-144.33;100.00
19843;BME280;10082;51.038;6.992;2023-04-27T04:36:33;112171.53;;;-144.33;100.00
19843;BME280;10082;51.038;6.992;2023-04-27T04:39:00;112171.53;;;-144.33;100.00
19843;BME280;10082;51.038;6.992;2023-04-27T04:41:28;112171.53;;;-144.33;100.00
19843;BME280;10082;51.038;6.992;2023-04-27T04:43:57;112171.53;;;-144.33;100.00
19843;BME280;10082;51.038;6.992;2023-04-27T04:46:25;112171.53;;;-144.33;100.00
19843;BME280;10082;51.038;6.992;2023-04-27T04:48:52;112171.53;;;-144.33;100.00
19843;BME280;10082;51.038;6.992;2023-04-27T04:51:21;112171.53;;;-144.33;100.00
19843;BME280;10082;51.038;6.992;2023-04-27T04:53:48;112171.53;;;-144.33;100.00
19843;BME280;10082;51.038;6.992;2023-04-27T04:56:16;112171.53;;;-144.33;100.00
19843;BME280;10082;51.038;6.992;2023-04-27T04:58:43;112171.53;;;-144.33;100.00
19843;BME280;10082;51.038;6.992;2023-04-27T05:01:10;112171.53;;;-144.33;100.00
19843;BME280;10082;51.038;6.992;2023-04-27T05:03:36;112171.53;;;-144.33;100.00
19843;BME280;10082;51.038;6.992;2023-04-27T05:06:04;112171.53;;;-144.33;100.00
19843;BME280;10082;51.038;6.992;2023-04-27T05:08:33;112171.53;;;-144.33;100.00
19843;BME280;10082;51.038;6.992;2023-04-27T05:11:00;112171.53;;;-144.33;100.00
19843;BME280;10082;51.038;6.992;2023-04-27T05:13:27;112171.53;;;-144.33;100.00
19843;BME280;10082;51.038;6.992;2023-04-27T05:15:55;112171.53;;;-144.33;100.00
19843;BME280;10082;51.038;6.992;2023-04-27T05:18:22;112171.53;;;-144.33;100.00
19843;BME280;10082;51.038;6.992;2023-04-27T05:20:49;112171.53;;;-144.33;100.00
19843;BME280;10082;51.038;6.992;2023-04-27T05:23:16;112171.53;;;-144.33;100.00
19843;BME280;10082;51.038;6.992;2023-04-27T05:25:44;112171.53;;;-144.33;100.00
19843;BME280;10082;51.038;6.992;2023-04-27T05:28:11;112171.53;;;-144.33;100.00
19843;BME280;10082;51.038;6.992;2023-04-27T05:30:38;112171.53;;;-144.33;100.00
19843;BME280;10082;51.038;6.992;2023-04-27T05:33:05;112171.53;;;-144.33;100.00
19843;BME280;10082;51.038;6.992;2023-04-27T05:35:33;112171.53;;;-144.33;100.00
19843;BME280;10082;51.038;6.992;2023-04-27T05:38:00;112171.53;;;-144.33;100.00
19843;BME280;10082;51.038;6.992;2023-04-27T05:40:27;112171.53;;;-144.33;100.00
19843;BME280;10082;51.038;6.992;2023-04-27T05:42:56;112171.53;;;-144.33;100.00
19843;BME280;10082;51.038;6.992;2023-04-27T05:45:26;112171.53;;;-144.33;100.00
19843;BME280;10082;51.038;6.992;2023-04-27T05:47:53;112171.53;;;-144.33;100.00
19843;BME280;10082;51.038;6.992;2023-04-27T05:50:21;112171.53;;;-144.33;100.00
19843;BME280;10082;51.038;6.992;2023-04-27T05:52:48;112171.53;;;-144.33;100.00
19843;BME280;10082;51.038;6.992;2023-04-27T05:55:15;112171.53;;;-144.33;100.00
19843;BME280;10082;51.038;6.992;2023-04-27T05:57:42;112171.53;;;-144.33;100.00
19843;BME280;10082;51.038;6.992;2023-04-27T06:00:12;112171.53;;;-144.33;100.00
19843;BME280;10082;51.038;6.992;2023-04-27T06:02:39;112171.53;;;-144.33;100.00
19843;BME280;10082;51.038;6.992;2023-04-27T06:05:07;112171.53;;;-144.33;100.00
19843;BME280;10082;51.038;6.992;2023-04-27T06:07:37;112171.53;;;-144.33;100.00
19843;BME280;10082;51.038;6.992;2023-04-27T06:10:07;112171.53;;;-144.33;100.00
19843;BME280;10082;51.038;6.992;2023-04-27T06:12:34;112171.53;;;-144.33;100.00
19843;BME280;10082;51.038;6.992;2023-04-27T06:15:01;112171.53;;;-144.33;100.00
19843;BME280;10082;51.038;6.992;2023-04-27T06:17:34;112171.53;;;-144.33;100.00
19843;BME280;10082;51.038;6.992;2023-04-27T06:20:02;112171.53;;;-144.33;100.00
19843;BME280;10082;51.038;6.992;2023-04-27T06:22:31;112171.53;;;-144.33;97.53
19843;BME280;10082;51.038;6.992;2023-04-27T06:24:58;112171.53;;;-144.33;93.59
19843;BME280;10082;51.038;6.992;2023-04-27T06:27:25;112171.53;;;-144.33;90.25
19843;BME280;10082;51.038;6.992;2023-04-27T06:29:52;112171.53;;;-144.33;86.48
19843;BME280;10082;51.038;6.992;2023-04-27T06:32:20;112171.53;;;-144.33;84.66
19843;BME280;10082;51.038;6.992;2023-04-27T06:34:49;112171.53;;;-144.33;82.43
19843;BME280;10082;51.038;6.992;2023-04-27T06:37:16;112171.53;;;-144.33;80.04
19843;BME280;10082;51.038;6.992;2023-04-27T06:39:43;112171.53;;;-144.33;77.18
19843;BME280;10082;51.038;6.992;2023-04-27T06:42:10;112171.53;;;-144.33;74.94
19843;BME280;10082;51.038;6.992;2023-04-27T06:44:38;112171.53;;;-144.33;73.38
19843;BME280;10082;51.038;6.992;2023-04-27T06:47:05;112171.53;;;-144.33;71.69
19843;BME280;10082;51.038;6.992;2023-04-27T06:49:32;112171.53;;;-144.33;71.61
19843;BME280;10082;51.038;6.992;2023-04-27T06:52:01;112171.53;;;-144.33;70.75
19843;BME280;10082;51.038;6.992;2023-04-27T06:54:30;112171.53;;;-144.33;68.94
19843;BME280;10082;51.038;6.992;2023-04-27T06:56:57;112171.53;;;-144.33;67.87
19843;BME280;10082;51.038;6.992;2023-04-27T06:59:24;112171.53;;;-144.33;67.70
19843;BME280;10082;51.038;6.992;2023-04-27T07:01:51;112171.53;;;-144.33;66.26
19843;BME280;10082;51.038;6.992;2023-04-27T07:04:18;112171.53;;;-144.33;62.69
19843;BME280;10082;51.038;6.992;2023-04-27T07:06:45;112171.53;;;-144.33;61.23
19843;BME280;10082;51.038;6.992;2023-04-27T07:09:14;112171.53;;;-144.33;61.27
19843;BME280;10082;51.038;6.992;2023-04-27T07:11:41;112171.53;;;-144.33;59.22
19843;BME280;10082;51.038;6.992;2023-04-27T07:14:08;112171.53;;;-144.33;59.48
19843;BME280;10082;51.038;6.992;2023-04-27T07:16:36;112171.53;;;-144.33;57.87
19843;BME280;10082;51.038;6.992;2023-04-27T07:19:03;112171.53;;;-144.33;56.49
19843;BME280;10082;51.038;6.992;2023-04-27T07:21:30;112171.53;;;-144.33;55.60
19843;BME280;10082;51.038;6.992;2023-04-27T07:23:57;112171.53;;;-144.33;52.77
19843;BME280;10082;51.038;6.992;2023-04-27T07:26:26;112171.53;;;-144.33;52.24
19843;BME280;10082;51.038;6.992;2023-04-27T07:28:53;112171.53;;;-144.33;53.05
19843;BME280;10082;51.038;6.992;2023-04-27T07:31:21;112171.53;;;-144.33;51.87
19843;BME280;10082;51.038;6.992;2023-04-27T07:33:48;112171.53;;;-144.33;50.45
19843;BME280;10082;51.038;6.992;2023-04-27T07:36:15;112171.53;;;-144.33;49.59
19843;BME280;10082;51.038;6.992;2023-04-27T07:38:43;112171.53;;;-144.33;48.66
19843;BME280;10082;51.038;6.992;2023-04-27T07:41:10;112171.53;;;-144.33;46.49
19843;BME280;10082;51.038;6.992;2023-04-27T07:43:41;112171.53;;;-144.33;45.26
19843;BME280;10082;51.038;6.992;2023-04-27T07:46:08;112171.53;;;-144.33;44.27
19843;BME280;10082;51.038;6.992;2023-04-27T07:48:36;112171.53;;;-144.33;45.65
19843;BME280;10082;51.038;6.992;2023-04-27T07:51:03;112171.53;;;-144.33;45.66
19843;BME280;10082;51.038;6.992;2023-04-27T07:53:33;112171.53;;;-144.33;45.01
19843;BME280;10082;51.038;6.992;2023-04-27T07:56:00;112171.53;;;-144.33;44.64
19843;BME280;10082;51.038;6.992;2023-04-27T07:58:28;112171.53;;;-144.33;44.30
19843;BME280;10082;51.038;6.992;2023-04-27T08:00:57;112171.53;;;-144.33;42.61
19843;BME280;10082;51.038;6.992;2023-04-27T08:03:24;112171.53;;;-144.33;41.28
19843;BME280;10082;51.038;6.992;2023-04-27T08:05:51;112171.53;;;-144.33;40.90
19843;BME280;10082;51.038;6.992;2023-04-27T08:08:18;112171.53;;;-144.33;38.25
19843;BME280;10082;51.038;6.992;2023-04-27T08:10:45;112171.53;;;-144.33;38.18
19843;BME280;10082;51.038;6.992;2023-04-27T08:13:12;112171.53;;;-144.33;37.65
19843;BME280;10082;51.038;6.992;2023-04-27T08:15:40;112171.53;;;-144.33;38.31
19843;BME280;10082;51.038;6.992;2023-04-27T08:18:08;112171.53;;;-144.33;38.17
19843;BME280;10082;51.038;6.992;2023-04-27T08:20:35;112171.53;;;-144.33;36.04
19843;BME280;10082;51.038;6.992;2023-04-27T08:23:02;112171.53;;;-144.33;36.33
19843;BME280;10082;51.038;6.992;2023-04-27T08:25:29;112171.53;;;-144.33;36.91
19843;BME280;10082;51.038;6.992;2023-04-27T08:27:56;112171.53;;;-144.33;36.40
19843;BME280;10082;51.038;6.992;2023-04-27T08:30:23;112171.53;;;-144.33;36.70
19843;BME280;10082;51.038;6.992;2023-04-27T08:32:51;112171.53;;;-144.33;36.68
19843;BME280;10082;51.038;6.992;2023-04-27T08:35:20;112171.53;;;-144.33;35.56
19843;BME280;10082;51.038;6.992;2023-04-27T08:37:47;112171.53;;;-144.33;36.54
19843;BME280;10082;51.038;6.992;2023-04-27T08:40:14;112171.53;;;-144.33;36.23
19843;BME280;10082;51.038;6.992;2023-04-27T08:42:54;112171.53;;;-144.33;35.68
19843;BME280;10082;51.038;6.992;2023-04-27T08:45:22;112171.53;;;-144.33;36.71
19843;BME280;10082;51.038;6.992;2023-04-27T08:47:50;112171.53;;;-144.33;37.81
19843;BME280;10082;51.038;6.992;2023-04-27T08:50:17;112171.53;;;-144.33;36.87
19843;BME280;10082;51.038;6.992;2023-04-27T08:52:48;112171.53;;;-144.33;37.52
19843;BME280;10082;51.038;6.992;2023-04-27T08:55:16;112171.53;;;-144.33;36.54
19843;BME280;10082;51.038;6.992;2023-04-27T08:57:53;112171.53;;;-144.33;36.25
19843;BME280;10082;51.038;6.992;2023-04-27T09:00:20;112171.53;;;-144.33;35.40
19843;BME280;10082;51.038;6.992;2023-04-27T09:02:48;112171.53;;;-144.33;34.64
19843;BME280;10082;51.038;6.992;2023-04-27T09:05:16;112171.53;;;-144.33;34.36
19843;BME280;10082;51.038;6.992;2023-04-27T09:07:56;112171.53;;;-144.33;34.35
19843;BME280;10082;51.038;6.992;2023-04-27T09:10:23;112171.53;;;-144.33;35.27
19843;BME280;10082;51.038;6.992;2023-04-27T09:12:55;112171.53;;;-144.33;35.27
19843;BME280;10082;51.038;6.992;2023-04-27T09:15:22;112171.53;;;-144.33;35.00
19843;BME280;10082;51.038;6.992;2023-04-27T09:17:53;112171.53;;;-144.33;35.11
19843;BME280;10082;51.038;6.992;2023-04-27T09:20:20;112171.53;;;-144.33;37.29
19843;BME280;10082;51.038;6.992;2023-04-27T09:22:49;112171.53;;;-144.33;35.44
19843;BME280;10082;51.038;6.992;2023-04-27T09:25:29;112171.53;;;-144.33;33.70
19843;BME280;10082;51.038;6.992;2023-04-27T09:27:59;112171.53;;;-144.33;34.76
19843;BME280;10082;51.038;6.992;2023-04-27T09:30:27;112171.53;;;-144.33;35.17
19843;BME280;10082;51.038;6.992;2023-04-27T09:32:57;112171.53;;;-144.33;36.57
19843;BME280;10082;51.038;6.992;2023-04-27T09:35:26;112171.53;;;-144.33;35.89
19843;BME280;10082;51.038;6.992;2023-04-27T09:37:54;112171.53;;;-144.33;35.01
19843;BME280;10082;51.038;6.992;2023-04-27T09:40:22;112171.53;;;-144.33;35.38
19843;BME280;10082;51.038;6.992;2023-04-27T09:42:54;112171.53;;;-144.33;33.97
19843;BME280;10082;51.038;6.992;2023-04-27T09:45:22;112171.53;;;-144.33;33.28
19843;BME280;10082;51.038;6.992;2023-04-27T09:47:49;112171.53;;;-144.33;33.05
19843;BME280;10082;51.038;6.992;2023-04-27T09:50:16;112171.53;;;-144.33;34.19
19843;BME280;10082;51.038;6.992;2023-04-27T09:52:44;112171.53;;;-144.33;36.61
19843;BME280;10082;51.038;6.992;2023-04-27T09:55:15;112171.53;;;-144.33;36.39
19843;BME280;10082;51.038;6.992;2023-04-27T09:57:50;112171.53;;;-144.33;35.73
19843;BME280;10082;51.038;6.992;2023-04-27T10:00:29;112171.53;;;-144.33;33.87
19843;BME280;10082;51.038;6.992;2023-04-27T10:03:14;112171.53;;;-144.33;34.14
19843;BME280;10082;51.038;6.992;2023-04-27T10:06:06;112171.53;;;-144.33;35.60
19843;BME280;10082;51.038;6.992;2023-04-27T10:08:52;112171.53;;;-144.33;35.43
19843;BME280;10082;51.038;6.992;2023-04-27T10:11:19;112171.53;;;-144.33;34.61
19843;BME280;10082;51.038;6.992;2023-04-27T10:13:51;112171.53;;;-144.33;33.85
19843;BME280;10082;51.038;6.992;2023-04-27T10:16:21;112171.53;;;-144.33;33.70
19843;BME280;10082;51.038;6.992;2023-04-27T10:18:52;112171.53;;;-144.33;33.03
19843;BME280;10082;51.038;6.992;2023-04-27T10:21:20;112171.53;;;-144.33;32.39
19843;BME280;10082;51.038;6.992;2023-04-27T10:23:48;112171.53;;;-144.33;33.13
19843;BME280;10082;51.038;6.992;2023-04-27T10:26:22;112171.53;;;-144.33;32.02
19843;BME280;10082;51.038;6.992;2023-04-27T10:28:57;112171.53;;;-144.33;32.67
19843;BME280;10082;51.038;6.992;2023-04-27T10:31:28;112171.53;;;-144.33;31.49
19843;BME280;10082;51.038;6.992;2023-04-27T10:34:09;112171.53;;;-144.33;31.27
19843;BME280;10082;51.038;6.992;2023-04-27T10:36:37;112171.53;;;-144.33;33.28
19843;BME280;10082;51.038;6.992;2023-04-27T10:39:15;112171.53;;;-144.33;31.89
19843;BME280;10082;51.038;6.992;2023-04-27T10:41:50;112171.53;;;-144.33;32.69
19843;BME280;10082;51.038;6.992;2023-04-27T10:44:18;112171.53;;;-144.33;33.24
19843;BME280;10082;51.038;6.992;2023-04-27T10:46:50;112171.53;;;-144.33;33.87
19843;BME280;10082;51.038;6.992;2023-04-27T10:49:18;112171.53;;;-144.33;33.49
19843;BME280;10082;51.038;6.992;2023-04-27T10:51:45;112171.53;;;-144.33;32.62
19843;BME280;10082;51.038;6.992;2023-04-27T10:54:13;112171.53;;;-144.33;32.31
19843;BME280;10082;51.038;6.992;2023-04-27T10:56:40;112171.53;;;-144.33;32.58
19843;BME280;10082;51.038;6.992;2023-04-27T10:59:08;112171.53;;;-144.33;34.91
19843;BME280;10082;51.038;6.992;2023-04-27T11:01:35;112171.53;;;-144.33;34.31
19843;BME280;10082;51.038;6.992;2023-04-27T11:04:04;112171.53;;;-144.33;34.62
19843;BME280;10082;51.038;6.992;2023-04-27T11:06:31;112171.53;;;-144.33;35.02
19843;BME280;10082;51.038;6.992;2023-04-27T11:09:07;112171.53;;;-144.33;34.36
19843;BME280;10082;51.038;6.992;2023-04-27T11:11:35;112171.53;;;-144.33;31.85
19843;BME280;10082;51.038;6.992;2023-04-27T11:14:02;112171.53;;;-144.33;31.66
19843;BME280;10082;51.038;6.992;2023-04-27T11:16:29;112171.53;;;-144.33;32.39
19843;BME280;10082;51.038;6.992;2023-04-27T11:19:04;112171.53;;;-144.33;32.81
19843;BME280;10082;51.038;6.992;2023-04-27T11:21:31;112171.53;;;-144.33;34.59
19843;BME280;10082;51.038;6.992;2023-04-27T11:24:03;112171.53;;;-144.33;35.80
19843;BME280;10082;51.038;6.992;2023-04-27T11:26:30;112171.53;;;-144.33;33.37
19843;BME280;10082;51.038;6.992;2023-04-27T11:28:59;112171.53;;;-144.33;35.15
19843;BME280;10082;51.038;6.992;2023-04-27T11:31:27;112171.53;;;-144.33;35.05
19843;BME280;10082;51.038;6.992;2023-04-27T11:34:14;112171.53;;;-144.33;33.18
19843;BME280;10082;51.038;6.992;2023-04-27T11:36:41;112171.53;;;-144.33;34.20
19843;BME280;10082;51.038;6.992;2023-04-27T11:39:15;112171.53;;;-144.33;33.13
19843;BME280;10082;51.038;6.992;2023-04-27T11:41:43;112171.53;;;-144.33;35.51
19843;BME280;10082;51.038;6.992;2023-04-27T11:44:11;112171.53;;;-144.33;36.15
19843;BME280;10082;51.038;6.992;2023-04-27T11:46:38;112171.53;;;-144.33;36.16
19843;BME280;10082;51.038;6.992;2023-04-27T11:49:07;112171.53;;;-144.33;35.21
19843;BME280;10082;51.038;6.992;2023-04-27T11:51:35;112171.53;;;-144.33;33.97
19843;BME280;10082;51.038;6.992;2023-04-27T11:54:04;112171.53;;;-144.33;34.49
19843;BME280;10082;51.038;6.992;2023-04-27T11:56:36;112171.53;;;-144.33;32.81
19843;BME280;10082;51.038;6.992;2023-04-27T11:59:03;112171.53;;;-144.33;34.28
19843;BME280;10082;51.038;6.992;2023-04-27T12:01:31;112171.53;;;-144.33;35.51
19843;BME280;10082;51.038;6.992;2023-04-27T12:03:58;112171.53;;;-144.33;32.76
19843;BME280;10082;51.038;6.992;2023-04-27T12:06:26;112171.53;;;-144.33;30.84
19843;BME280;10082;51.038;6.992;2023-04-27T12:08:55;112171.53;;;-144.33;32.01
19843;BME280;10082;51.038;6.992;2023-04-27T12:11:23;112171.53;;;-144.33;32.04
19843;BME280;10082;51.038;6.992;2023-04-27T12:13:52;112171.53;;;-144.33;32.14
19843;BME280;10082;51.038;6.992;2023-04-27T12:16:19;112171.53;;;-144.33;31.06
19843;BME280;10082;51.038;6.992;2023-04-27T12:18:48;112171.53;;;-144.33;32.34
19843;BME280;10082;51.038;6.992;2023-04-27T12:21:15;112171.53;;;-144.33;34.54
19843;BME280;10082;51.038;6.992;2023-04-27T12:23:43;112171.53;;;-144.33;34.52
19843;BME280;10082;51.038;6.992;2023-04-27T12:26:11;112171.53;;;-144.33;33.92
19843;BME280;10082;51.038;6.992;2023-04-27T12:28:39;112171.53;;;-144.33;32.16
19843;BME280;10082;51.038;6.992;2023-04-27T12:31:06;112171.53;;;-144.33;33.88